Time;durP1;ratioP1;P1;durP2;ratioP2;P2;SDS_P1;SDS_P2;PMS_P1;PMS_P2;Temp;Humidity;BMP_temperature;BMP_pressure;BME280_temperature;BME280_humidity;BME280_pressure;Samples;Min_cycle;Max_cycle;Signal;HPM_P1;HPM_P2
2022/07/18 00:01:07;;;;;;;;;;;28.30;91.60;;;;;;5139524;27;19904;-45
2022/07/18 00:03:33;;;;;;;;;;;28.30;91.60;;;;;;5148706;27;19906;-47
2022/07/18 00:05:59;;;;;;;;;;;28.30;91.70;;;;;;5148692;27;19903;-43
2022/07/18 00:08:26;;;;;;;;;;;28.30;91.70;;;;;;5138307;27;19945;-45
2022/07/18 00:10:52;;;;;;;;;;;28.30;91.80;;;;;;5126876;27;19908;-52
2022/07/18 00:13:18;;;;;;;;;;;28.30;91.70;;;;;;5143759;27;20004;-43
2022/07/18 00:15:44;;;;;;;;;;;28.30;91.90;;;;;;5147786;27;19910;-43
2022/07/18 00:18:10;;;;;;;;;;;28.30;92.10;;;;;;5147380;27;19911;-45
2022/07/18 00:20:37;;;;;;;;;;;28.30;92.10;;;;;;5147229;27;19903;-49
2022/07/18 00:23:03;;;;;;;;;;;28.30;92.20;;;;;;5146586;27;20188;-45
2022/07/18 00:25:29;;;;;;;;;;;28.20;92.10;;;;;;5148310;27;19907;-45
2022/07/18 00:27:55;;;;;;;;;;;28.20;92.10;;;;;;5143696;27;19903;-48
2022/07/18 00:30:21;;;;;;;;;;;28.20;92.10;;;;;;5118145;27;19915;-42
2022/07/18 00:32:48;;;;;;;;;;;28.20;92.10;;;;;;5118270;27;19927;-45
2022/07/18 00:35:14;;;;;;;;;;;28.10;92.10;;;;;;5145073;27;19945;-44
2022/07/18 00:37:40;;;;;;;;;;;28.20;92.20;;;;;;5140406;27;19935;-43
2022/07/18 00:40:06;;;;;;;;;;;28.10;92.30;;;;;;5146415;27;19907;-45
2022/07/18 00:42:32;;;;;;;;;;;28.10;92.30;;;;;;5139770;27;19963;-45
2022/07/18 00:44:59;;;;;;;;;;;28.10;92.40;;;;;;5146290;27;19942;-46
2022/07/18 00:47:25;;;;;;;;;;;28.10;92.40;;;;;;5146184;27;19906;-40
2022/07/18 00:49:51;;;;;;;;;;;28.10;92.40;;;;;;5145655;27;19973;-44
2022/07/18 00:52:17;;;;;;;;;;;28.00;92.50;;;;;;5146373;27;19921;-43
2022/07/18 00:54:44;;;;;;;;;;;28.00;92.70;;;;;;5146567;27;20130;-44
2022/07/18 00:57:11;;;;;;;;;;;28.00;92.70;;;;;;5127626;27;20188;-45
2022/07/18 01:02:24;;;;;;;;;;;28.00;92.80;;;;;;5142875;27;19929;-42
2022/07/18 01:04:50;;;;;;;;;;;27.90;93.10;;;;;;5123887;28;20200;-42
2022/07/18 01:07:16;;;;;;;;;;;28.00;92.90;;;;;;5141785;27;20155;-41
2022/07/18 01:09:42;;;;;;;;;;;27.90;92.90;;;;;;5127902;27;19911;-43
2022/07/18 01:12:08;;;;;;;;;;;27.90;92.90;;;;;;5140967;27;19910;-43
2022/07/18 01:14:35;;;;;;;;;;;27.90;92.90;;;;;;5126715;27;19940;-46
2022/07/18 01:17:01;;;;;;;;;;;27.90;92.90;;;;;;5143122;27;20191;-44
2022/07/18 01:19:28;;;;;;;;;;;27.90;92.90;;;;;;5138752;27;19903;-42
2022/07/18 01:21:54;;;;;;;;;;;27.80;92.90;;;;;;5133336;27;20200;-41
2022/07/18 01:24:20;;;;;;;;;;;27.80;92.90;;;;;;5140879;27;19966;-47
2022/07/18 01:26:46;;;;;;;;;;;27.90;92.90;;;;;;5142863;27;19903;-40
2022/07/18 01:29:12;;;;;;;;;;;27.80;92.90;;;;;;5145516;27;19903;-45
2022/07/18 01:31:38;;;;;;;;;;;27.80;92.80;;;;;;5145384;27;19903;-49
2022/07/18 01:34:07;;;;;;;;;;;27.80;92.60;;;;;;5141756;27;19903;-47
2022/07/18 01:36:33;;;;;;;;;;;27.80;92.70;;;;;;5143189;27;19982;-46
2022/07/18 01:38:59;;;;;;;;;;;27.90;92.50;;;;;;5144972;27;19904;-44
2022/07/18 01:41:25;;;;;;;;;;;27.90;92.50;;;;;;5138610;27;19908;-45
2022/07/18 01:43:52;;;;;;;;;;;27.90;92.30;;;;;;5144940;27;19914;-46
2022/07/18 01:46:18;;;;;;;;;;;28.00;92.40;;;;;;5142197;27;19907;-48
2022/07/18 01:48:44;;;;;;;;;;;28.00;92.40;;;;;;5145335;27;19899;-51
2022/07/18 01:51:10;;;;;;;;;;;28.00;92.40;;;;;;5145566;27;20127;-56
2022/07/18 01:53:40;;;;;;;;;;;28.00;92.40;;;;;;5121959;27;19903;-55
2022/07/18 01:56:07;;;;;;;;;;;28.00;92.30;;;;;;5145009;27;19934;-55
2022/07/18 01:58:33;;;;;;;;;;;28.00;92.30;;;;;;5145580;27;19911;-56
2022/07/18 02:00:59;;;;;;;;;;;28.00;92.30;;;;;;5140518;27;20180;-57
2022/07/18 02:03:25;;;;;;;;;;;28.00;91.60;;;;;;5142368;27;19903;-54
2022/07/18 02:05:52;;;;;;;;;;;27.90;91.40;;;;;;5145464;27;19903;-55
2022/07/18 02:08:18;;;;;;;;;;;27.80;91.30;;;;;;5144885;27;19911;-56
2022/07/18 02:10:44;;;;;;;;;;;27.70;91.30;;;;;;5145829;27;19930;-54
2022/07/18 02:13:10;;;;;;;;;;;27.60;91.50;;;;;;5145108;27;19903;-53
2022/07/18 02:15:36;;;;;;;;;;;27.50;91.50;;;;;;5145419;28;19903;-56
2022/07/18 02:18:02;;;;;;;;;;;27.50;91.70;;;;;;5145169;28;20215;-55
2022/07/18 02:20:29;;;;;;;;;;;27.40;91.70;;;;;;5145608;28;19903;-51
2022/07/18 02:22:55;;;;;;;;;;;27.30;91.70;;;;;;5127178;28;19915;-54
2022/07/18 02:25:21;;;;;;;;;;;27.30;91.60;;;;;;5145515;28;19911;-54
2022/07/18 02:27:47;;;;;;;;;;;27.20;91.70;;;;;;5143706;28;19912;-55
2022/07/18 02:30:13;;;;;;;;;;;27.10;91.80;;;;;;5141855;28;19938;-54
2022/07/18 02:32:39;;;;;;;;;;;27.10;91.80;;;;;;5141964;28;19915;-53
2022/07/18 02:35:06;;;;;;;;;;;27.10;91.90;;;;;;5144314;28;20073;-55
2022/07/18 02:37:33;;;;;;;;;;;27.00;91.80;;;;;;5144529;28;20192;-54
2022/07/18 02:39:59;;;;;;;;;;;27.00;91.90;;;;;;5144859;28;19972;-53
2022/07/18 02:42:25;;;;;;;;;;;27.00;91.90;;;;;;5144838;28;19904;-59
2022/07/18 02:44:51;;;;;;;;;;;27.00;92.00;;;;;;5144648;28;20160;-54
2022/07/18 02:47:17;;;;;;;;;;;27.10;91.90;;;;;;5145263;28;20179;-51
2022/07/18 02:49:43;;;;;;;;;;;27.10;92.00;;;;;;5144859;28;19922;-53
2022/07/18 02:52:10;;;;;;;;;;;27.10;92.00;;;;;;5126320;28;19938;-53
2022/07/18 02:54:37;;;;;;;;;;;27.00;92.00;;;;;;5145156;28;19975;-54
2022/07/18 02:57:03;;;;;;;;;;;27.00;92.20;;;;;;5143113;28;20176;-56
2022/07/18 02:59:29;;;;;;;;;;;27.10;92.10;;;;;;5139921;28;19911;-54
2022/07/18 03:01:56;;;;;;;;;;;27.10;92.10;;;;;;5145157;28;19900;-54
2022/07/18 03:04:22;;;;;;;;;;;27.10;92.20;;;;;;5144736;28;19991;-59
2022/07/18 03:06:49;;;;;;;;;;;27.10;92.10;;;;;;5144899;28;19899;-58
2022/07/18 03:09:16;;;;;;;;;;;27.00;92.10;;;;;;5145649;28;19914;-58
2022/07/18 03:11:42;;;;;;;;;;;27.00;92.50;;;;;;5145280;28;19907;-54
2022/07/18 03:14:08;;;;;;;;;;;27.00;92.20;;;;;;5126455;28;20214;-55
2022/07/18 03:16:34;;;;;;;;;;;27.00;92.30;;;;;;5145152;28;19899;-55
2022/07/18 03:19:01;;;;;;;;;;;27.00;92.20;;;;;;5145073;28;19911;-59
2022/07/18 03:21:28;;;;;;;;;;;26.90;92.20;;;;;;5145916;27;19906;-54
2022/07/18 03:23:55;;;;;;;;;;;26.90;92.30;;;;;;5149070;27;19911;-58
2022/07/18 03:26:21;;;;;;;;;;;27.00;92.60;;;;;;5149122;27;19921;-53
2022/07/18 03:28:47;;;;;;;;;;;27.00;92.50;;;;;;5141595;27;19915;-58
2022/07/18 03:31:14;;;;;;;;;;;27.00;92.60;;;;;;5136893;27;19900;-55
2022/07/18 03:33:40;;;;;;;;;;;27.00;92.60;;;;;;5128256;28;19908;-55
2022/07/18 03:36:07;;;;;;;;;;;26.90;92.50;;;;;;5128034;28;19908;-60
2022/07/18 03:38:33;;;;;;;;;;;26.90;92.60;;;;;;5128251;28;19908;-54
2022/07/18 03:40:59;;;;;;;;;;;26.90;92.70;;;;;;5128262;28;19904;-54
2022/07/18 03:43:30;;;;;;;;;;;27.00;92.80;;;;;;5128174;28;20243;-54
2022/07/18 03:45:57;;;;;;;;;;;27.00;92.90;;;;;;5127871;28;19916;-55
2022/07/18 03:48:23;;;;;;;;;;;26.90;92.80;;;;;;5128379;28;19908;-54
2022/07/18 03:50:49;;;;;;;;;;;26.90;92.80;;;;;;5127972;28;19927;-56
2022/07/18 03:53:15;;;;;;;;;;;26.90;92.90;;;;;;5127989;28;19982;-55
2022/07/18 03:55:41;;;;;;;;;;;26.90;92.90;;;;;;5127469;28;19900;-56
2022/07/18 03:58:07;;;;;;;;;;;26.90;92.90;;;;;;5127851;28;19979;-55
2022/07/18 04:00:34;;;;;;;;;;;26.90;92.90;;;;;;5127383;28;19945;-54
2022/07/18 04:03:00;;;;;;;;;;;26.90;92.90;;;;;;5127587;28;19908;-54
2022/07/18 04:05:26;;;;;;;;;;;26.80;93.00;;;;;;5127569;27;19903;-54
2022/07/18 04:07:52;;;;;;;;;;;26.90;93.10;;;;;;5138915;27;19908;-60
2022/07/18 04:10:19;;;;;;;;;;;26.90;93.10;;;;;;5127142;28;20092;-56
2022/07/18 04:12:46;;;;;;;;;;;26.80;93.00;;;;;;5147063;27;19915;-56
2022/07/18 04:15:12;;;;;;;;;;;26.80;93.00;;;;;;5147718;27;19899;-55
2022/07/18 04:17:38;;;;;;;;;;;26.80;93.00;;;;;;5147867;27;19953;-53
2022/07/18 04:20:05;;;;;;;;;;;26.80;93.20;;;;;;5147718;27;20217;-61
2022/07/18 04:22:31;;;;;;;;;;;26.70;93.10;;;;;;5147979;27;20098;-56
2022/07/18 04:24:59;;;;;;;;;;;26.70;93.10;;;;;;5147800;27;19966;-56
2022/07/18 04:27:25;;;;;;;;;;;26.70;93.10;;;;;;5147931;27;19907;-54
2022/07/18 04:29:51;;;;;;;;;;;26.70;93.10;;;;;;5147822;27;19927;-57
2022/07/18 04:32:18;;;;;;;;;;;26.70;93.20;;;;;;5147598;27;20232;-58
2022/07/18 04:34:44;;;;;;;;;;;26.60;93.10;;;;;;5146350;27;19899;-57
2022/07/18 04:37:10;;;;;;;;;;;26.70;93.20;;;;;;5147164;27;19938;-58
2022/07/18 04:39:36;;;;;;;;;;;26.70;93.20;;;;;;5147245;27;19911;-55
2022/07/18 04:42:03;;;;;;;;;;;26.70;93.30;;;;;;5140041;27;19910;-54
2022/07/18 04:44:29;;;;;;;;;;;26.70;93.30;;;;;;5145918;27;19930;-54
2022/07/18 04:46:55;;;;;;;;;;;26.70;93.30;;;;;;5147076;27;20176;-55
2022/07/18 05:01:28;;;;;;;;;;;26.60;93.10;;;;;;5121761;27;19940;-59
2022/07/18 05:03:54;;;;;;;;;;;26.90;93.00;;;;;;5122200;28;19958;-60
2022/07/18 05:06:20;;;;;;;;;;;26.80;93.00;;;;;;5122232;28;19973;-59
2022/07/18 05:08:46;;;;;;;;;;;26.80;93.10;;;;;;5121817;28;19904;-59
2022/07/18 05:11:13;;;;;;;;;;;26.70;93.20;;;;;;5122114;28;20103;-60
2022/07/18 05:13:40;;;;;;;;;;;26.70;93.20;;;;;;5122014;28;19911;-60
2022/07/18 05:16:06;;;;;;;;;;;26.70;93.30;;;;;;5121834;28;19908;-60
2022/07/18 05:18:32;;;;;;;;;;;26.70;93.30;;;;;;5115404;28;19911;-60
2022/07/18 05:20:58;;;;;;;;;;;26.60;93.30;;;;;;5100982;28;19943;-60
2022/07/18 05:23:25;;;;;;;;;;;26.60;93.30;;;;;;5100773;28;19909;-59
2022/07/18 05:25:51;;;;;;;;;;;26.60;93.40;;;;;;5101423;28;19920;-59
2022/07/18 05:28:20;;;;;;;;;;;26.60;93.40;;;;;;5098668;28;19909;-59
2022/07/18 05:30:46;;;;;;;;;;;26.60;93.40;;;;;;5088234;28;19951;-60
2022/07/18 05:33:12;;;;;;;;;;;26.50;93.30;;;;;;5080961;28;20280;-60
2022/07/18 05:35:38;;;;;;;;;;;26.50;93.40;;;;;;5080814;28;19920;-60
2022/07/18 05:38:04;;;;;;;;;;;26.50;93.60;;;;;;5080808;28;19904;-60
2022/07/18 05:40:30;;;;;;;;;;;26.40;93.60;;;;;;5081328;28;19913;-59
2022/07/18 05:42:57;;;;;;;;;;;26.40;93.60;;;;;;5099967;28;19939;-60
2022/07/18 05:45:24;;;;;;;;;;;26.50;93.60;;;;;;5100336;28;19931;-62
2022/07/18 05:47:50;;;;;;;;;;;26.50;93.60;;;;;;5099982;28;19909;-58
2022/07/18 05:50:16;;;;;;;;;;;26.50;93.60;;;;;;5097262;28;19943;-57
2022/07/18 05:52:42;;;;;;;;;;;26.50;93.60;;;;;;5099792;28;19908;-58
2022/07/18 05:55:09;;;;;;;;;;;26.50;93.60;;;;;;5099902;28;19940;-58
2022/07/18 05:57:35;;;;;;;;;;;26.50;93.50;;;;;;5099980;28;19931;-59
2022/07/18 06:00:03;;;;;;;;;;;26.50;93.50;;;;;;5099453;28;20197;-58
2022/07/18 06:02:29;;;;;;;;;;;26.50;93.50;;;;;;5085398;28;19955;-59
2022/07/18 06:04:56;;;;;;;;;;;26.50;93.50;;;;;;5083586;28;19940;-59
2022/07/18 06:07:22;;;;;;;;;;;26.50;93.50;;;;;;5085981;28;19909;-55
2022/07/18 06:09:48;;;;;;;;;;;26.40;93.40;;;;;;5085969;28;19912;-58
2022/07/18 06:12:15;;;;;;;;;;;26.40;93.50;;;;;;5085821;28;19920;-59
2022/07/18 06:14:41;;;;;;;;;;;26.40;93.40;;;;;;5086084;28;19954;-59
2022/07/18 06:17:07;;;;;;;;;;;26.40;93.50;;;;;;5085632;28;20138;-59
2022/07/18 06:19:33;;;;;;;;;;;26.40;93.50;;;;;;5085878;28;19909;-60
2022/07/18 06:22:00;;;;;;;;;;;26.40;93.50;;;;;;5085595;28;20085;-59
2022/07/18 06:24:26;;;;;;;;;;;26.40;93.50;;;;;;5085743;28;20009;-57
2022/07/18 06:26:52;;;;;;;;;;;26.40;93.50;;;;;;5085466;28;19909;-56
2022/07/18 06:29:18;;;;;;;;;;;26.30;93.40;;;;;;5119410;28;20151;-59
2022/07/18 06:31:44;;;;;;;;;;;26.40;93.40;;;;;;5086619;28;19962;-58
2022/07/18 06:34:11;;;;;;;;;;;26.30;93.40;;;;;;5086313;28;19908;-59
2022/07/18 06:36:37;;;;;;;;;;;26.30;93.50;;;;;;5086530;28;19916;-59
2022/07/18 06:39:08;;;;;;;;;;;26.30;93.50;;;;;;5086544;28;20184;-59
2022/07/18 06:41:34;;;;;;;;;;;26.30;93.40;;;;;;5086263;28;19916;-59
2022/07/18 06:44:00;;;;;;;;;;;26.30;93.50;;;;;;5086557;28;19939;-59
2022/07/18 06:46:26;;;;;;;;;;;26.30;93.50;;;;;;5086364;28;20103;-60
2022/07/18 06:48:52;;;;;;;;;;;26.30;93.50;;;;;;5086045;28;19909;-60
2022/07/18 06:51:19;;;;;;;;;;;26.30;93.50;;;;;;5086153;28;19965;-60
2022/07/18 06:53:45;;;;;;;;;;;26.30;93.50;;;;;;5086224;28;20202;-60
2022/07/18 06:56:11;;;;;;;;;;;26.30;93.50;;;;;;5086020;28;19940;-59
2022/07/18 06:58:37;;;;;;;;;;;26.30;93.60;;;;;;5086086;28;19904;-60
2022/07/18 07:01:04;;;;;;;;;;;26.30;93.60;;;;;;5085958;28;19916;-60
2022/07/18 07:03:30;;;;;;;;;;;26.30;93.70;;;;;;5086138;28;20065;-59
2022/07/18 07:05:56;;;;;;;;;;;26.30;93.70;;;;;;5085990;28;19904;-59
2022/07/18 07:08:22;;;;;;;;;;;26.30;93.70;;;;;;5085887;28;19905;-59
2022/07/18 07:10:48;;;;;;;;;;;26.20;93.60;;;;;;5086102;28;19956;-59
2022/07/18 07:13:15;;;;;;;;;;;26.20;93.70;;;;;;5084904;28;19911;-59
2022/07/18 07:15:42;;;;;;;;;;;26.20;93.70;;;;;;5086294;28;19916;-59
2022/07/18 07:18:10;;;;;;;;;;;26.30;93.80;;;;;;5085536;28;20149;-60
2022/07/18 07:20:36;;;;;;;;;;;26.30;93.80;;;;;;5078747;28;20188;-59
2022/07/18 07:23:07;;;;;;;;;;;26.20;93.90;;;;;;5065677;28;19911;-59
2022/07/18 07:25:33;;;;;;;;;;;26.20;93.90;;;;;;5065758;28;19913;-58
2022/07/18 07:27:59;;;;;;;;;;;26.20;93.90;;;;;;5065479;28;19909;-59
2022/07/18 07:30:25;;;;;;;;;;;26.20;93.90;;;;;;5065565;28;19952;-59
2022/07/18 07:32:51;;;;;;;;;;;26.20;93.90;;;;;;5065161;28;19950;-60
2022/07/18 07:35:18;;;;;;;;;;;26.20;94.00;;;;;;5065565;28;19920;-60
2022/07/18 07:37:45;;;;;;;;;;;26.20;93.90;;;;;;5065219;28;19905;-59
2022/07/18 07:40:12;;;;;;;;;;;26.20;94.00;;;;;;5065641;28;20193;-59
2022/07/18 07:42:38;;;;;;;;;;;26.20;94.00;;;;;;5065151;28;20288;-59
2022/07/18 07:45:05;;;;;;;;;;;26.20;94.00;;;;;;5065419;28;19952;-59
2022/07/18 07:47:31;;;;;;;;;;;26.20;94.00;;;;;;5065078;28;20212;-60
2022/07/18 07:49:58;;;;;;;;;;;26.20;94.00;;;;;;5065009;28;19917;-59
2022/07/18 07:52:24;;;;;;;;;;;26.10;94.00;;;;;;5065035;28;19951;-60
2022/07/18 07:54:50;;;;;;;;;;;26.10;94.10;;;;;;5065054;28;20180;-62
2022/07/18 07:57:17;;;;;;;;;;;26.10;94.20;;;;;;5064799;28;19911;-59
2022/07/18 07:59:43;;;;;;;;;;;26.10;94.10;;;;;;5064950;28;20193;-59
2022/07/18 08:02:09;;;;;;;;;;;26.10;94.20;;;;;;5064769;28;20183;-59
2022/07/18 08:04:35;;;;;;;;;;;26.10;94.10;;;;;;5064356;28;19913;-59
2022/07/18 08:07:01;;;;;;;;;;;26.10;94.20;;;;;;5064774;28;19911;-59
2022/07/18 08:09:27;;;;;;;;;;;26.10;94.20;;;;;;5064715;28;19979;-60
2022/07/18 08:11:53;;;;;;;;;;;26.10;94.20;;;;;;5064472;28;20212;-56
2022/07/18 08:14:20;;;;;;;;;;;26.10;94.10;;;;;;5064798;28;20188;-59
2022/07/18 08:16:46;;;;;;;;;;;26.10;94.20;;;;;;5064624;28;19908;-59
2022/07/18 08:19:12;;;;;;;;;;;26.10;94.10;;;;;;5064545;28;19913;-58
2022/07/18 08:21:38;;;;;;;;;;;26.10;94.20;;;;;;5064695;28;19912;-60
2022/07/18 08:24:05;;;;;;;;;;;26.10;94.20;;;;;;5064203;28;20252;-59
2022/07/18 08:26:31;;;;;;;;;;;26.10;94.20;;;;;;5064342;28;19904;-59
2022/07/18 08:28:57;;;;;;;;;;;26.10;94.20;;;;;;5064306;28;19978;-60
2022/07/18 08:31:25;;;;;;;;;;;26.00;94.10;;;;;;5064261;28;19905;-60
2022/07/18 08:33:51;;;;;;;;;;;26.10;94.10;;;;;;5064095;28;19963;-61
2022/07/18 08:36:17;;;;;;;;;;;26.10;94.10;;;;;;5064248;28;19928;-59
2022/07/18 08:38:43;;;;;;;;;;;26.10;94.20;;;;;;5064307;28;19947;-60
2022/07/18 08:41:10;;;;;;;;;;;26.10;94.20;;;;;;5064325;28;20130;-59
2022/07/18 08:43:36;;;;;;;;;;;26.00;94.10;;;;;;5064082;28;19967;-61
2022/07/18 08:46:03;;;;;;;;;;;26.00;94.10;;;;;;5064342;28;19913;-60
2022/07/18 08:48:30;;;;;;;;;;;26.00;94.00;;;;;;5064184;28;19905;-59
2022/07/18 08:50:56;;;;;;;;;;;26.00;94.10;;;;;;5096391;28;20074;-60
2022/07/18 08:53:22;;;;;;;;;;;26.00;94.10;;;;;;5064299;28;19927;-60
2022/07/18 08:55:48;;;;;;;;;;;26.00;94.10;;;;;;5064700;28;20133;-59
2022/07/18 08:58:17;;;;;;;;;;;26.00;94.10;;;;;;5064014;28;19927;-59
2022/07/18 09:00:46;;;;;;;;;;;26.00;94.20;;;;;;5063954;28;19920;-60
2022/07/18 09:03:13;;;;;;;;;;;26.00;94.10;;;;;;5063989;28;19905;-59
2022/07/18 09:05:42;;;;;;;;;;;25.90;94.10;;;;;;5064367;28;20088;-59
2022/07/18 09:08:16;;;;;;;;;;;26.00;94.20;;;;;;5063975;28;20243;-60
2022/07/18 09:10:50;;;;;;;;;;;26.00;94.20;;;;;;5064391;28;19923;-59
2022/07/18 09:13:17;;;;;;;;;;;25.90;94.20;;;;;;5063972;28;20140;-60
2022/07/18 09:16:03;;;;;;;;;;;26.00;94.20;;;;;;5064377;28;20067;-60
2022/07/18 09:18:30;;;;;;;;;;;26.00;94.30;;;;;;5063878;28;19905;-60
2022/07/18 09:21:01;;;;;;;;;;;25.90;94.20;;;;;;5063776;28;19947;-59
2022/07/18 09:23:28;;;;;;;;;;;25.90;94.30;;;;;;5063633;28;19905;-60
2022/07/18 09:25:54;;;;;;;;;;;25.90;94.30;;;;;;5063815;28;19984;-58
2022/07/18 09:28:20;;;;;;;;;;;25.90;94.30;;;;;;5063671;28;20160;-59
2022/07/18 09:30:46;;;;;;;;;;;25.90;94.30;;;;;;5063990;28;19917;-59
2022/07/18 09:33:13;;;;;;;;;;;25.90;94.30;;;;;;5063772;28;19919;-59
2022/07/18 09:35:49;;;;;;;;;;;25.90;94.40;;;;;;5064424;28;20176;-59
2022/07/18 09:38:16;;;;;;;;;;;25.90;94.40;;;;;;5067335;28;19905;-59
2022/07/18 09:40:46;;;;;;;;;;;25.90;94.40;;;;;;5067965;28;19936;-54
2022/07/18 09:43:16;;;;;;;;;;;25.90;94.40;;;;;;5086985;28;19908;-59
2022/07/18 09:45:47;;;;;;;;;;;25.90;94.40;;;;;;5087606;28;19912;-59
2022/07/18 09:48:15;;;;;;;;;;;25.90;94.40;;;;;;5087195;28;19905;-59
2022/07/18 09:50:43;;;;;;;;;;;25.90;94.40;;;;;;5069115;28;20094;-59
2022/07/18 09:53:11;;;;;;;;;;;25.90;94.40;;;;;;5087051;28;20228;-59
2022/07/18 09:55:48;;;;;;;;;;;25.80;94.40;;;;;;5087504;28;20181;-59
2022/07/18 09:58:15;;;;;;;;;;;25.90;94.40;;;;;;5086771;28;19943;-59
2022/07/18 10:00:41;;;;;;;;;;;25.90;94.40;;;;;;5086852;28;20200;-60
2022/07/18 10:03:08;;;;;;;;;;;25.90;94.40;;;;;;5086773;28;19983;-59
2022/07/18 10:05:36;;;;;;;;;;;25.80;94.40;;;;;;5087235;28;19913;-59
2022/07/18 10:08:03;;;;;;;;;;;25.90;94.50;;;;;;5086825;28;19905;-60
2022/07/18 10:10:30;;;;;;;;;;;25.80;94.40;;;;;;5087320;28;19923;-59
2022/07/18 10:12:59;;;;;;;;;;;25.80;94.40;;;;;;5086895;28;19908;-61
2022/07/18 10:15:28;;;;;;;;;;;25.80;94.50;;;;;;5087449;28;20192;-61
2022/07/18 10:17:54;;;;;;;;;;;25.80;94.50;;;;;;5086836;28;19905;-60
2022/07/18 10:20:31;;;;;;;;;;;25.80;94.50;;;;;;5087043;28;19983;-60
2022/07/18 10:22:59;;;;;;;;;;;25.70;94.50;;;;;;5086806;28;19913;-60
2022/07/18 10:25:26;;;;;;;;;;;25.80;94.60;;;;;;5087161;28;20198;-60
2022/07/18 10:28:11;;;;;;;;;;;25.80;94.60;;;;;;5087372;28;19958;-60
2022/07/18 10:30:45;;;;;;;;;;;25.80;94.60;;;;;;5087181;28;19916;-59
2022/07/18 10:33:29;;;;;;;;;;;25.80;94.70;;;;;;5086503;28;19919;-59
2022/07/18 10:36:00;;;;;;;;;;;25.70;94.60;;;;;;5086476;28;19916;-59
2022/07/18 10:38:26;;;;;;;;;;;25.80;94.70;;;;;;5086458;28;19904;-61
2022/07/18 10:41:13;;;;;;;;;;;25.80;94.70;;;;;;5086960;28;19935;-56
2022/07/18 10:43:41;;;;;;;;;;;25.70;94.60;;;;;;5086457;28;19912;-62
2022/07/18 10:46:08;;;;;;;;;;;25.70;94.70;;;;;;5086426;28;19975;-62
2022/07/18 10:48:37;;;;;;;;;;;25.70;94.70;;;;;;5085527;28;19904;-58
2022/07/18 10:51:06;;;;;;;;;;;25.70;94.70;;;;;;5086400;28;19916;-61
2022/07/18 10:53:51;;;;;;;;;;;25.70;94.80;;;;;;5086578;28;19905;-61
2022/07/18 10:56:17;;;;;;;;;;;25.70;94.80;;;;;;5086474;28;19905;-61
2022/07/18 10:58:44;;;;;;;;;;;25.70;94.80;;;;;;5086272;28;19911;-60
2022/07/18 11:01:15;;;;;;;;;;;25.70;95.10;;;;;;5083461;28;19917;-60
2022/07/18 11:03:41;;;;;;;;;;;25.70;94.90;;;;;;5065882;28;19913;-60
2022/07/18 11:06:07;;;;;;;;;;;25.70;94.90;;;;;;5065821;28;20019;-60
2022/07/18 11:08:33;;;;;;;;;;;25.70;95.00;;;;;;5068613;28;19958;-59
2022/07/18 11:11:02;;;;;;;;;;;25.70;94.90;;;;;;5085625;28;19908;-59
2022/07/18 11:13:31;;;;;;;;;;;25.70;95.00;;;;;;5085888;28;19912;-59
2022/07/18 11:16:06;;;;;;;;;;;25.70;95.00;;;;;;5085681;28;19976;-59
2022/07/18 11:18:33;;;;;;;;;;;25.70;95.10;;;;;;5085685;28;19905;-60
2022/07/18 11:21:00;;;;;;;;;;;25.70;95.00;;;;;;5085511;28;19911;-60
2022/07/18 11:23:26;;;;;;;;;;;25.70;95.00;;;;;;5084925;28;20088;-62
2022/07/18 11:25:57;;;;;;;;;;;25.70;95.10;;;;;;5085986;28;19912;-59
2022/07/18 11:28:27;;;;;;;;;;;25.70;95.10;;;;;;5085339;28;19905;-55
2022/07/18 11:31:00;;;;;;;;;;;25.70;95.10;;;;;;5085320;28;19916;-56
2022/07/18 11:33:28;;;;;;;;;;;25.70;95.20;;;;;;5085542;28;20192;-58
2022/07/18 11:36:04;;;;;;;;;;;25.70;95.20;;;;;;5085581;28;19919;-59
2022/07/18 11:38:30;;;;;;;;;;;25.70;95.20;;;;;;5085079;28;19972;-61
2022/07/18 11:40:56;;;;;;;;;;;25.70;95.20;;;;;;5085348;28;20230;-60
2022/07/18 11:43:24;;;;;;;;;;;25.70;95.20;;;;;;5085118;28;19905;-60
2022/07/18 11:46:00;;;;;;;;;;;25.80;95.20;;;;;;5085548;28;19913;-62
2022/07/18 11:48:26;;;;;;;;;;;25.90;95.10;;;;;;5085072;28;19911;-62
2022/07/18 11:50:52;;;;;;;;;;;26.00;94.90;;;;;;5084005;28;19967;-60
2022/07/18 11:53:18;;;;;;;;;;;26.10;94.80;;;;;;5084350;28;19904;-61
2022/07/18 11:55:45;;;;;;;;;;;26.20;94.70;;;;;;5085569;28;20214;-60
2022/07/18 11:58:12;;;;;;;;;;;26.20;94.70;;;;;;5084700;28;19905;-60
2022/07/18 12:00:38;;;;;;;;;;;26.20;94.80;;;;;;5083561;28;19924;-59
2022/07/18 12:03:17;;;;;;;;;;;26.20;94.80;;;;;;5085986;28;19983;-56
2022/07/18 12:05:50;;;;;;;;;;;26.30;94.80;;;;;;5085896;28;19909;-56
2022/07/18 12:08:32;;;;;;;;;;;26.30;94.80;;;;;;5084885;28;20189;-57
2022/07/18 12:11:18;;;;;;;;;;;26.30;94.80;;;;;;5084699;28;19917;-61
2022/07/18 12:13:44;;;;;;;;;;;26.30;94.80;;;;;;5084535;28;19940;-59
2022/07/18 12:16:29;;;;;;;;;;;26.40;94.80;;;;;;5084313;28;19950;-62
2022/07/18 12:19:01;;;;;;;;;;;26.30;94.70;;;;;;5084390;28;19940;-61
2022/07/18 12:21:41;;;;;;;;;;;26.40;94.90;;;;;;5084693;28;19940;-62
2022/07/18 12:24:26;;;;;;;;;;;26.40;94.70;;;;;;5084730;28;19909;-62
2022/07/18 12:27:16;;;;;;;;;;;26.50;94.70;;;;;;5084365;28;19909;-63
2022/07/18 12:30:04;;;;;;;;;;;26.50;94.70;;;;;;5084522;28;19913;-64
2022/07/18 12:32:38;;;;;;;;;;;26.60;94.70;;;;;;5083895;28;19908;-56
2022/07/18 12:35:05;;;;;;;;;;;26.60;94.60;;;;;;5084656;28;20179;-58
2022/07/18 12:37:32;;;;;;;;;;;26.70;94.50;;;;;;5083792;28;19908;-56
2022/07/18 12:40:08;;;;;;;;;;;26.60;94.50;;;;;;5083757;28;19978;-59
2022/07/18 12:42:41;;;;;;;;;;;26.70;94.50;;;;;;5084250;28;19916;-59
2022/07/18 12:45:08;;;;;;;;;;;26.70;94.40;;;;;;5084311;28;19916;-57
2022/07/18 12:47:34;;;;;;;;;;;26.70;94.40;;;;;;5084166;28;19908;-58
2022/07/18 12:50:00;;;;;;;;;;;26.70;94.50;;;;;;5084268;28;19920;-59
2022/07/18 12:52:26;;;;;;;;;;;26.70;94.40;;;;;;5084162;28;19915;-63
2022/07/18 12:54:52;;;;;;;;;;;26.70;94.40;;;;;;5084206;28;19908;-58
2022/07/18 12:57:19;;;;;;;;;;;26.70;94.40;;;;;;5083999;28;19915;-59
2022/07/18 12:59:45;;;;;;;;;;;26.70;94.50;;;;;;5084060;28;20042;-57
2022/07/18 13:02:12;;;;;;;;;;;26.70;94.50;;;;;;5082155;28;19911;-57
2022/07/18 13:04:39;;;;;;;;;;;26.70;94.60;;;;;;5082958;28;19912;-58
2022/07/18 13:07:05;;;;;;;;;;;26.70;94.50;;;;;;5083127;28;19908;-60
2022/07/18 13:09:31;;;;;;;;;;;26.70;94.60;;;;;;5084262;28;20131;-60
2022/07/18 13:11:58;;;;;;;;;;;26.70;94.60;;;;;;5086457;28;19905;-59
2022/07/18 13:14:24;;;;;;;;;;;26.70;94.60;;;;;;5087126;28;19913;-57
2022/07/18 13:16:52;;;;;;;;;;;26.70;94.70;;;;;;5088023;28;19905;-60
2022/07/18 13:19:19;;;;;;;;;;;26.70;94.70;;;;;;5086908;28;19980;-59
2022/07/18 13:21:46;;;;;;;;;;;26.70;94.70;;;;;;5087779;28;19905;-59
2022/07/18 13:24:12;;;;;;;;;;;26.70;95.00;;;;;;5087318;28;19913;-57
2022/07/18 13:26:38;;;;;;;;;;;26.70;95.00;;;;;;5087709;28;19911;-59
2022/07/18 13:29:05;;;;;;;;;;;26.70;94.80;;;;;;5085852;28;19920;-58
2022/07/18 13:31:31;;;;;;;;;;;26.70;94.70;;;;;;5087831;28;20292;-57
2022/07/18 13:33:57;;;;;;;;;;;26.80;94.50;;;;;;5087457;28;20184;-59
2022/07/18 13:36:23;;;;;;;;;;;26.80;94.40;;;;;;5087529;28;20188;-57
2022/07/18 13:38:50;;;;;;;;;;;26.80;94.40;;;;;;5087458;28;19959;-58
2022/07/18 13:41:16;;;;;;;;;;;26.80;94.40;;;;;;5087531;28;19927;-58
2022/07/18 13:43:42;;;;;;;;;;;26.80;94.50;;;;;;5087512;28;19904;-60
2022/07/18 13:46:09;;;;;;;;;;;26.80;94.30;;;;;;5087356;28;19904;-60
2022/07/18 13:48:35;;;;;;;;;;;26.90;94.30;;;;;;5086186;28;19905;-60
2022/07/18 13:51:02;;;;;;;;;;;26.90;94.30;;;;;;5087196;28;20255;-60
2022/07/18 13:53:28;;;;;;;;;;;26.90;94.30;;;;;;5087220;28;19958;-57
2022/07/18 13:55:54;;;;;;;;;;;26.90;94.20;;;;;;5087322;28;19909;-58
2022/07/18 13:58:20;;;;;;;;;;;26.90;94.00;;;;;;5087083;28;20255;-59
2022/07/18 14:00:47;;;;;;;;;;;26.90;94.00;;;;;;5087104;28;19920;-56
2022/07/18 14:03:14;;;;;;;;;;;26.90;94.00;;;;;;5086322;28;19912;-57
2022/07/18 14:05:40;;;;;;;;;;;26.90;94.00;;;;;;5087087;28;19940;-58
2022/07/18 14:08:07;;;;;;;;;;;27.00;94.10;;;;;;5086516;28;19905;-59
2022/07/18 14:10:33;;;;;;;;;;;26.90;94.10;;;;;;5086372;28;19920;-56
2022/07/18 14:13:00;;;;;;;;;;;27.00;94.20;;;;;;5085861;28;20009;-59
2022/07/18 14:15:26;;;;;;;;;;;26.90;94.30;;;;;;5086674;28;20214;-61
2022/07/18 14:17:52;;;;;;;;;;;27.00;94.30;;;;;;5086876;28;19904;-60
2022/07/18 14:20:18;;;;;;;;;;;27.00;94.30;;;;;;5087128;28;19913;-59
2022/07/18 14:22:46;;;;;;;;;;;27.00;94.30;;;;;;5086366;28;19927;-59
2022/07/18 14:25:13;;;;;;;;;;;27.00;94.40;;;;;;5086927;28;19912;-60
2022/07/18 14:27:40;;;;;;;;;;;27.00;94.40;;;;;;5086547;28;19987;-58
2022/07/18 14:30:07;;;;;;;;;;;27.10;94.50;;;;;;5086954;28;19995;-60
2022/07/18 14:32:33;;;;;;;;;;;27.10;94.50;;;;;;5086805;28;19942;-55